createdAt,value
2023-05-01T00:00:23.316Z,25.78
2023-05-01T00:01:23.275Z,25.79
2023-05-01T00:02:23.419Z,25.79
2023-05-01T00:03:23.339Z,25.79
2023-05-01T00:04:23.310Z,25.81
2023-05-01T00:05:23.229Z,25.81
2023-05-01T00:06:23.276Z,25.78
2023-05-01T00:07:23.229Z,25.79
2023-05-01T00:08:23.208Z,25.79
2023-05-01T00:09:23.224Z,25.79
2023-05-01T00:10:23.233Z,25.78
2023-05-01T00:11:23.199Z,25.78
2023-05-01T00:12:23.183Z,25.76
2023-05-01T00:13:23.163Z,25.78
2023-05-01T00:14:23.219Z,25.76
2023-05-01T00:15:23.224Z,25.78
2023-05-01T00:16:23.328Z,25.78
2023-05-01T00:17:23.278Z,25.78
2023-05-01T00:18:23.298Z,25.76
2023-05-01T00:19:23.329Z,25.76
2023-05-01T00:20:23.379Z,25.76
2023-05-01T00:21:23.382Z,25.75
2023-05-01T00:22:23.426Z,25.74
2023-05-01T00:23:23.433Z,25.75
2023-05-01T00:24:23.467Z,25.74
2023-05-01T00:25:23.499Z,25.76
2023-05-01T00:26:23.532Z,25.79
2023-05-01T00:27:23.584Z,25.75
2023-05-01T00:28:23.561Z,25.78
2023-05-01T00:29:23.609Z,25.76
2023-05-01T00:30:23.650Z,25.76
2023-05-01T00:31:23.758Z,25.76
2023-05-01T00:32:23.741Z,25.75
2023-05-01T00:33:23.720Z,25.75
2023-05-01T00:34:23.759Z,25.75
2023-05-01T00:35:23.797Z,25.78
2023-05-01T00:36:23.820Z,25.74
2023-05-01T00:37:24.050Z,25.75
2023-05-01T00:38:23.885Z,25.75
2023-05-01T00:39:23.908Z,25.76
2023-05-01T00:40:23.925Z,25.75
2023-05-01T00:41:24.942Z,25.72
2023-05-01T00:42:23.984Z,25.76
2023-05-01T00:43:24.035Z,25.75
2023-05-01T00:44:24.048Z,25.75
2023-05-01T00:45:24.093Z,25.75
2023-05-01T00:46:24.235Z,25.76
2023-05-01T00:47:24.191Z,25.75
2023-05-01T00:48:24.173Z,25.76
2023-05-01T00:49:24.189Z,25.76
2023-05-01T00:50:24.238Z,25.72
2023-05-01T00:51:24.279Z,25.74
2023-05-01T00:52:24.342Z,25.75
2023-05-01T00:53:24.328Z,25.75
2023-05-01T00:54:24.368Z,25.74
2023-05-01T00:55:24.389Z,25.74
2023-05-01T00:56:24.392Z,25.74
2023-05-01T00:57:24.448Z,25.72
2023-05-01T00:58:24.478Z,25.74
2023-05-01T00:59:24.480Z,25.74
2023-05-01T01:00:24.554Z,25.75
2023-05-01T01:01:24.626Z,25.72
2023-05-01T01:02:24.681Z,25.72
2023-05-01T01:03:24.632Z,25.74
2023-05-01T01:04:24.672Z,25.72
2023-05-01T01:05:24.715Z,25.74
2023-05-01T01:06:24.749Z,25.74
2023-05-01T01:07:24.761Z,25.72
2023-05-01T01:08:24.805Z,25.72
2023-05-01T01:09:24.831Z,25.72
2023-05-01T01:10:24.845Z,25.74
2023-05-01T01:11:24.874Z,25.72
2023-05-01T01:12:24.942Z,25.75
2023-05-01T01:13:24.921Z,25.69
2023-05-01T01:14:24.960Z,25.74
2023-05-01T01:15:25.052Z,25.74
2023-05-01T01:16:25.061Z,25.71
2023-05-01T01:17:25.164Z,25.72
2023-05-01T01:18:25.124Z,25.71
2023-05-01T01:19:25.122Z,25.74
2023-05-01T01:20:25.200Z,25.72
2023-05-01T01:21:25.212Z,25.72
2023-05-01T01:22:25.268Z,25.71
2023-05-01T01:23:25.299Z,25.71
2023-05-01T01:24:25.285Z,25.69
2023-05-01T01:25:25.355Z,25.71
2023-05-01T01:26:25.357Z,25.69
2023-05-01T01:27:25.409Z,25.71
2023-05-01T01:28:25.452Z,25.71
2023-05-01T01:29:25.466Z,25.74
2023-05-01T01:30:25.496Z,25.72
2023-05-01T01:31:25.582Z,25.71
2023-05-01T01:32:25.591Z,25.72
2023-05-01T01:33:25.614Z,25.71
2023-05-01T01:34:25.653Z,25.74
2023-05-01T01:35:25.688Z,25.72
2023-05-01T01:36:25.707Z,25.74
2023-05-01T01:37:25.736Z,25.68
2023-05-01T01:38:25.770Z,25.69
2023-05-01T01:39:25.775Z,25.72
2023-05-01T01:40:25.830Z,25.69
2023-05-01T01:41:25.984Z,25.69
2023-05-01T01:42:25.895Z,25.71
2023-05-01T01:43:25.940Z,25.69
2023-05-01T01:44:25.986Z,25.72
2023-05-01T01:45:26.028Z,25.71
2023-05-01T01:46:26.103Z,25.69
2023-05-01T01:47:26.105Z,25.71
2023-05-01T01:48:26.108Z,25.71
2023-05-01T01:49:26.225Z,25.68
2023-05-01T01:50:26.198Z,25.71
2023-05-01T01:51:26.237Z,25.71
2023-05-01T01:52:26.290Z,25.71
2023-05-01T01:53:26.338Z,25.72
2023-05-01T01:54:26.318Z,25.71
2023-05-01T01:55:26.405Z,25.66
2023-05-01T01:56:26.432Z,25.71
2023-05-01T01:57:26.467Z,25.71
2023-05-01T01:58:26.549Z,25.71
2023-05-01T01:59:26.518Z,25.69
2023-05-01T02:00:26.576Z,25.69
2023-05-01T02:01:26.683Z,25.68
2023-05-01T02:02:26.811Z,25.68
2023-05-01T02:03:26.930Z,25.68
2023-05-01T02:04:26.714Z,25.66
2023-05-01T02:05:26.760Z,25.68
2023-05-01T02:06:26.855Z,25.68
2023-05-01T02:07:26.840Z,25.69
2023-05-01T02:08:26.866Z,25.68
2023-05-01T02:09:26.891Z,25.68
2023-05-01T02:10:26.948Z,25.65
2023-05-01T02:11:26.960Z,25.68
2023-05-01T02:12:27.037Z,25.66
2023-05-01T02:13:27.041Z,25.66
2023-05-01T02:14:27.094Z,25.66
2023-05-01T02:15:27.119Z,25.65
2023-05-01T02:16:27.172Z,25.65
2023-05-01T02:17:27.174Z,25.68
2023-05-01T02:18:27.194Z,25.65
2023-05-01T02:19:27.249Z,25.68
2023-05-01T02:20:27.256Z,25.68
2023-05-01T02:21:27.291Z,25.68
2023-05-01T02:22:27.364Z,25.68
2023-05-01T02:23:27.355Z,25.66
2023-05-01T02:24:27.420Z,25.68
2023-05-01T02:25:29.650Z,25.68
2023-05-01T02:26:27.476Z,25.66
2023-05-01T02:27:27.488Z,25.69
2023-05-01T02:28:27.532Z,25.68
2023-05-01T02:29:27.557Z,25.68
2023-05-01T02:30:27.599Z,25.68
2023-05-01T02:31:27.684Z,25.68
2023-05-01T02:32:27.699Z,25.65
2023-05-01T02:33:27.690Z,25.66
2023-05-01T02:34:27.727Z,25.65
2023-05-01T02:35:27.756Z,25.65
2023-05-01T02:36:27.788Z,25.66
2023-05-01T02:37:27.845Z,25.66
2023-05-01T02:38:27.832Z,25.66
2023-05-01T02:39:27.883Z,25.66
2023-05-01T02:40:27.913Z,25.65
2023-05-01T02:41:27.949Z,25.65
2023-05-01T02:42:27.998Z,25.65
2023-05-01T02:43:28.010Z,25.65
2023-05-01T02:44:28.072Z,25.65
2023-05-01T02:45:28.089Z,25.65
2023-05-01T02:46:28.145Z,25.66
2023-05-01T02:47:28.250Z,25.66
2023-05-01T02:48:28.178Z,25.65
2023-05-01T02:49:28.211Z,25.65
2023-05-01T02:50:28.244Z,25.65
2023-05-01T02:51:28.300Z,25.66
2023-05-01T02:52:28.331Z,25.64
2023-05-01T02:53:28.369Z,25.64
2023-05-01T02:54:28.392Z,25.65
2023-05-01T02:55:28.436Z,25.66
2023-05-01T02:56:28.456Z,25.65
2023-05-01T02:57:28.518Z,25.69
2023-05-01T02:58:28.540Z,25.65
2023-05-01T02:59:28.636Z,25.66
2023-05-01T03:00:28.657Z,25.64
2023-05-01T03:01:28.728Z,25.68
2023-05-01T03:02:28.732Z,25.64
2023-05-01T03:03:28.742Z,25.64
2023-05-01T03:04:28.838Z,25.65
2023-05-01T03:05:30.556Z,25.64
2023-05-01T03:06:28.926Z,25.65
2023-05-01T03:07:28.887Z,25.62
2023-05-01T03:08:28.930Z,25.64
2023-05-01T03:09:28.962Z,25.64
2023-05-01T03:10:29.009Z,25.65
2023-05-01T03:11:29.052Z,25.62
2023-05-01T03:12:29.096Z,25.64
2023-05-01T03:13:29.083Z,25.64
2023-05-01T03:14:29.140Z,25.64
2023-05-01T03:15:29.206Z,25.65
2023-05-01T03:16:29.226Z,25.62
2023-05-01T03:17:29.277Z,25.64
2023-05-01T03:18:29.311Z,25.65
2023-05-01T03:19:29.311Z,25.65
2023-05-01T03:20:29.341Z,25.64
2023-05-01T03:21:29.406Z,25.65
2023-05-01T03:22:29.457Z,25.62
2023-05-01T03:23:29.494Z,25.64
2023-05-01T03:24:29.520Z,25.62
2023-05-01T03:25:29.583Z,25.62
2023-05-01T03:26:29.598Z,25.64
2023-05-01T03:27:29.643Z,25.62
2023-05-01T03:28:29.676Z,25.64
2023-05-01T03:29:29.684Z,25.62
2023-05-01T03:30:29.731Z,25.62
2023-05-01T03:31:29.808Z,25.65
2023-05-01T03:32:29.831Z,25.64
2023-05-01T03:33:29.878Z,25.64
2023-05-01T03:34:29.892Z,25.61
2023-05-01T03:35:29.983Z,25.62
2023-05-01T03:36:30.011Z,25.62
2023-05-01T03:37:30.054Z,25.62
2023-05-01T03:38:30.068Z,25.64
2023-05-01T03:39:30.090Z,25.61
2023-05-01T03:40:30.093Z,25.62
2023-05-01T03:41:30.137Z,25.64
2023-05-01T03:42:30.184Z,25.61
2023-05-01T03:43:30.234Z,25.60
2023-05-01T03:44:30.259Z,25.62
2023-05-01T03:45:30.300Z,25.61
2023-05-01T03:46:30.413Z,25.64
2023-05-01T03:47:30.413Z,25.62
2023-05-01T03:48:30.412Z,25.64
2023-05-01T03:49:30.464Z,25.61
2023-05-01T03:50:30.471Z,25.61
2023-05-01T03:51:30.502Z,25.62
2023-05-01T03:52:30.582Z,25.62
2023-05-01T03:53:30.624Z,25.62
2023-05-01T03:54:30.649Z,25.62
2023-05-01T03:55:30.691Z,25.62
2023-05-01T03:56:30.748Z,25.61
2023-05-01T03:57:30.746Z,25.64
2023-05-01T03:58:30.796Z,25.62
2023-05-01T03:59:30.849Z,25.61
2023-05-01T04:00:30.871Z,25.62
2023-05-01T04:01:30.903Z,25.62
2023-05-01T04:02:31.002Z,25.62
2023-05-01T04:03:31.071Z,25.61
2023-05-01T04:04:31.122Z,25.61
2023-05-01T04:05:31.057Z,25.58
2023-05-01T04:06:31.139Z,25.60
2023-05-01T04:07:31.126Z,25.62
2023-05-01T04:08:31.148Z,25.61
2023-05-01T04:09:31.190Z,25.61
2023-05-01T04:10:31.255Z,25.61
2023-05-01T04:11:31.259Z,25.60
2023-05-01T04:12:31.334Z,25.61
2023-05-01T04:13:31.337Z,25.60
2023-05-01T04:14:31.376Z,25.61
2023-05-01T04:15:31.424Z,25.62
2023-05-01T04:16:31.518Z,25.61
2023-05-01T04:17:31.522Z,25.62
2023-05-01T04:18:31.516Z,25.60
2023-05-01T04:19:31.535Z,25.60
2023-05-01T04:20:31.603Z,25.58
2023-05-01T04:21:31.601Z,25.61
2023-05-01T04:22:31.646Z,25.62
2023-05-01T04:23:31.687Z,25.60
2023-05-01T04:24:31.708Z,25.58
2023-05-01T04:25:31.772Z,25.62
2023-05-01T04:26:31.792Z,25.58
2023-05-01T04:27:31.861Z,25.62
2023-05-01T04:28:31.904Z,25.61
2023-05-01T04:29:31.945Z,25.62
2023-05-01T04:30:31.977Z,25.58
2023-05-01T04:31:32.054Z,25.60
2023-05-01T04:32:32.109Z,25.61
2023-05-01T04:33:32.089Z,25.58
2023-05-01T04:34:32.172Z,25.61
2023-05-01T04:35:32.206Z,25.58
2023-05-01T04:36:32.250Z,25.60
2023-05-01T04:37:32.279Z,25.61
2023-05-01T04:38:32.345Z,25.58
2023-05-01T04:39:32.360Z,25.61
2023-05-01T04:40:32.421Z,25.58
2023-05-01T04:41:32.465Z,25.58
2023-05-01T04:42:32.524Z,25.58
2023-05-01T04:43:32.558Z,25.61
2023-05-01T04:44:32.609Z,25.60
2023-05-01T04:45:32.648Z,25.60
2023-05-01T04:46:32.733Z,25.60
2023-05-01T04:47:32.799Z,25.60
2023-05-01T04:48:32.760Z,25.60
2023-05-01T04:49:32.829Z,25.60
2023-05-01T04:50:32.899Z,25.57
2023-05-01T04:51:32.882Z,25.62
2023-05-01T04:52:32.920Z,25.60
2023-05-01T04:53:32.977Z,25.60
2023-05-01T04:54:33.032Z,25.61
2023-05-01T04:55:33.057Z,25.60
2023-05-01T04:56:33.101Z,25.61
2023-05-01T04:57:33.161Z,25.58
2023-05-01T04:58:33.167Z,25.60
2023-05-01T04:59:33.229Z,25.61
2023-05-01T05:00:33.268Z,25.61
2023-05-01T05:01:33.357Z,25.60
2023-05-01T05:02:33.450Z,25.60
2023-05-01T05:03:33.523Z,25.58
2023-05-01T05:04:33.450Z,25.60
2023-05-01T05:05:33.479Z,25.62
2023-05-01T05:06:33.580Z,25.60
2023-05-01T05:07:33.585Z,25.61
2023-05-01T05:08:33.627Z,25.61
2023-05-01T05:09:33.671Z,25.60
2023-05-01T05:10:33.688Z,25.62
2023-05-01T05:11:33.822Z,25.61
2023-05-01T05:12:33.764Z,25.62
2023-05-01T05:13:33.823Z,25.60
2023-05-01T05:14:33.840Z,25.61
2023-05-01T05:15:33.870Z,25.60
2023-05-01T05:16:34.003Z,25.62
2023-05-01T05:17:34.022Z,25.60
2023-05-01T05:18:34.030Z,25.58
2023-05-01T05:19:34.092Z,25.61
2023-05-01T05:20:34.129Z,25.62
2023-05-01T05:21:34.135Z,25.64
2023-05-01T05:22:34.214Z,25.62
2023-05-01T05:23:34.222Z,25.61
2023-05-01T05:24:34.272Z,25.64
2023-05-01T05:25:34.322Z,25.60
2023-05-01T05:26:34.379Z,25.62
2023-05-01T05:27:34.425Z,25.64
2023-05-01T05:28:34.450Z,25.60
2023-05-01T05:29:34.509Z,25.60
2023-05-01T05:30:34.560Z,25.60
2023-05-01T05:31:34.595Z,25.60
2023-05-01T05:32:34.678Z,25.61
2023-05-01T05:33:34.660Z,25.61
2023-05-01T05:34:34.720Z,25.60
2023-05-01T05:35:34.741Z,25.60
2023-05-01T05:36:34.772Z,25.60
2023-05-01T05:37:34.860Z,25.58
2023-05-01T05:38:34.852Z,25.60
2023-05-01T05:39:35.534Z,25.60
2023-05-01T05:40:34.922Z,25.61
2023-05-01T05:41:34.982Z,25.60
2023-05-01T05:42:35.039Z,25.58
2023-05-01T05:43:35.039Z,25.62
2023-05-01T05:44:35.100Z,25.60
2023-05-01T05:45:35.249Z,25.61
2023-05-01T05:46:35.300Z,25.62
2023-05-01T05:47:35.241Z,25.62
2023-05-01T05:48:35.270Z,25.60
2023-05-01T05:49:35.320Z,25.61
2023-05-01T05:50:35.330Z,25.60
2023-05-01T05:51:35.358Z,25.62
2023-05-01T05:52:35.435Z,25.60
2023-05-01T05:53:35.442Z,25.62
2023-05-01T05:54:35.461Z,25.62
2023-05-01T05:55:35.535Z,25.60
2023-05-01T05:56:35.565Z,25.64
2023-05-01T05:57:35.618Z,25.62
2023-05-01T05:58:35.650Z,25.64
2023-05-01T05:59:35.688Z,25.61
2023-05-01T06:00:35.723Z,25.64
2023-05-01T06:01:35.710Z,25.64
2023-05-01T06:02:35.927Z,25.62
2023-05-01T06:03:36.026Z,25.62
2023-05-01T06:04:35.933Z,25.62
2023-05-01T06:05:35.943Z,25.64
2023-05-01T06:06:36.023Z,25.61
2023-05-01T06:07:35.995Z,25.64
2023-05-01T06:08:36.029Z,25.65
2023-05-01T06:09:36.050Z,25.64
2023-05-01T06:10:36.096Z,25.64
2023-05-01T06:11:36.113Z,25.62
2023-05-01T06:12:37.647Z,25.62
2023-05-01T06:13:36.125Z,25.65
2023-05-01T06:14:36.151Z,25.64
2023-05-01T06:15:36.186Z,25.65
2023-05-01T06:16:36.226Z,25.65
2023-05-01T06:17:36.116Z,25.64
2023-05-01T06:18:36.126Z,25.68
2023-05-01T06:19:36.141Z,25.65
2023-05-01T06:20:36.070Z,25.66
2023-05-01T06:21:36.093Z,25.66
2023-05-01T06:22:36.082Z,25.68
2023-05-01T06:23:36.092Z,25.64
2023-05-01T06:24:36.062Z,25.66
2023-05-01T06:25:36.058Z,25.66
2023-05-01T06:26:36.035Z,25.66
2023-05-01T06:27:36.053Z,25.68
2023-05-01T06:28:36.026Z,25.69
2023-05-01T06:29:36.030Z,25.68
2023-05-01T06:30:36.005Z,25.66
2023-05-01T06:31:36.040Z,25.69
2023-05-01T06:32:36.037Z,25.69
2023-05-01T06:33:35.985Z,25.69
2023-05-01T06:34:36.005Z,25.71
2023-05-01T06:35:35.973Z,25.71
2023-05-01T06:36:35.972Z,25.71
2023-05-01T06:37:35.962Z,25.71
2023-05-01T06:38:35.973Z,25.71
2023-05-01T06:39:35.949Z,25.71
2023-05-01T06:40:35.942Z,25.71
2023-05-01T06:41:35.933Z,25.72
2023-05-01T06:42:35.951Z,25.72
2023-05-01T06:43:35.918Z,25.75
2023-05-01T06:44:35.941Z,25.74
2023-05-01T06:45:35.914Z,25.72
2023-05-01T06:46:35.991Z,25.75
2023-05-01T06:47:35.966Z,25.74
2023-05-01T06:48:35.906Z,25.74
2023-05-01T06:49:35.860Z,25.74
2023-05-01T06:50:35.894Z,25.74
2023-05-01T06:51:35.877Z,25.75
2023-05-01T06:52:35.890Z,25.75
2023-05-01T06:53:35.864Z,25.75
2023-05-01T06:54:35.864Z,25.75
2023-05-01T06:55:35.985Z,25.78
2023-05-01T06:56:35.838Z,25.74
2023-05-01T06:57:35.847Z,25.74
2023-05-01T06:58:35.892Z,25.74
2023-05-01T06:59:35.921Z,25.72
2023-05-01T07:00:35.980Z,25.71
2023-05-01T07:01:36.006Z,25.72
2023-05-01T07:02:36.038Z,25.75
2023-05-01T07:03:36.124Z,25.74
2023-05-01T07:04:36.078Z,25.74
2023-05-01T07:05:36.100Z,25.75
2023-05-01T07:06:36.220Z,25.75
2023-05-01T07:07:37.450Z,25.74
2023-05-01T07:08:36.371Z,25.74
2023-05-01T07:09:36.386Z,25.78
2023-05-01T07:10:36.432Z,25.78
2023-05-01T07:11:36.480Z,25.76
2023-05-01T07:12:36.506Z,25.75
2023-05-01T07:13:36.534Z,25.76
2023-05-01T07:14:36.540Z,25.78
2023-05-01T07:15:36.568Z,25.78
2023-05-01T07:16:36.687Z,25.79
2023-05-01T07:17:36.649Z,25.76
2023-05-01T07:18:36.672Z,25.78
2023-05-01T07:19:36.694Z,25.81
2023-05-01T07:20:36.700Z,25.79
2023-05-01T07:21:36.742Z,25.79
2023-05-01T07:22:36.777Z,25.81
2023-05-01T07:23:36.798Z,25.81
2023-05-01T07:24:36.855Z,25.81
2023-05-01T07:25:36.869Z,25.79
2023-05-01T07:26:36.898Z,25.83
2023-05-01T07:27:36.975Z,25.81
2023-05-01T07:28:36.917Z,25.81
2023-05-01T07:29:36.928Z,25.81
2023-05-01T07:30:36.977Z,25.82
2023-05-01T07:31:37.065Z,25.82
2023-05-01T07:32:37.067Z,25.81
2023-05-01T07:33:37.044Z,25.82
2023-05-01T07:34:37.100Z,25.83
2023-05-01T07:35:37.121Z,25.83
2023-05-01T07:36:37.121Z,25.83
2023-05-01T07:37:37.143Z,25.85
2023-05-01T07:38:37.207Z,25.83
2023-05-01T07:39:37.193Z,25.86
2023-05-01T07:40:37.242Z,25.85
2023-05-01T07:41:37.302Z,25.86
2023-05-01T07:42:37.304Z,25.86
2023-05-01T07:43:37.333Z,25.86
2023-05-01T07:44:37.377Z,25.88
2023-05-01T07:45:37.389Z,25.89
2023-05-01T07:46:37.560Z,25.86
2023-05-01T07:47:37.517Z,25.86
2023-05-01T07:48:38.983Z,25.88
2023-05-01T07:49:37.472Z,25.89
2023-05-01T07:50:37.479Z,25.89
2023-05-01T07:51:37.525Z,25.89
2023-05-01T07:52:37.517Z,25.91
2023-05-01T07:53:37.549Z,25.89
2023-05-01T07:54:37.578Z,25.92
2023-05-01T07:55:37.607Z,25.89
2023-05-01T07:56:37.611Z,25.93
2023-05-01T07:57:37.647Z,25.92
2023-05-01T07:58:37.691Z,25.92
2023-05-01T07:59:37.679Z,25.92
2023-05-01T08:00:37.691Z,25.91
2023-05-01T08:01:37.733Z,25.92
2023-05-01T08:02:37.831Z,25.95
2023-05-01T08:03:37.991Z,25.96
2023-05-01T08:04:37.781Z,25.96
2023-05-01T08:05:37.801Z,25.96
2023-05-01T08:06:37.885Z,25.99
2023-05-01T08:07:37.837Z,25.97
2023-05-01T08:08:37.851Z,25.96
2023-05-01T08:09:37.881Z,25.99
2023-05-01T08:10:37.873Z,26.00
2023-05-01T08:11:37.898Z,26.00
2023-05-01T08:12:37.932Z,26.00
2023-05-01T08:13:37.938Z,26.00
2023-05-01T08:14:37.968Z,26.03
2023-05-01T08:15:37.990Z,26.03
2023-05-01T08:16:38.015Z,26.03
2023-05-01T08:17:38.012Z,26.03
2023-05-01T08:18:38.004Z,26.06
2023-05-01T08:19:38.040Z,26.04
2023-05-01T08:20:38.029Z,26.09
2023-05-01T08:21:38.016Z,26.07
2023-05-01T08:22:38.072Z,26.07
2023-05-01T08:23:38.072Z,26.09
2023-05-01T08:24:38.090Z,26.10
2023-05-01T08:25:38.083Z,26.10
2023-05-01T08:26:38.115Z,26.13
2023-05-01T08:27:38.151Z,26.10
2023-05-01T08:28:38.134Z,26.13
2023-05-01T08:29:38.182Z,26.10
2023-05-01T08:30:38.196Z,26.13
2023-05-01T08:31:38.176Z,26.15
2023-05-01T08:32:38.235Z,26.17
2023-05-01T08:33:38.166Z,26.15
2023-05-01T08:34:38.211Z,26.16
2023-05-01T08:35:38.216Z,26.17
2023-05-01T08:36:38.267Z,26.16
2023-05-01T08:37:38.247Z,26.19
2023-05-01T08:38:38.237Z,26.15
2023-05-01T08:39:38.245Z,26.19
2023-05-01T08:40:38.253Z,26.19
2023-05-01T08:41:38.315Z,26.19
2023-05-01T08:42:38.274Z,26.17
2023-05-01T08:43:38.267Z,26.19
2023-05-01T08:44:38.314Z,26.21
2023-05-01T08:45:38.378Z,26.19
2023-05-01T08:46:38.395Z,26.20
2023-05-01T08:47:38.542Z,26.20
2023-05-01T08:48:38.397Z,26.20
2023-05-01T08:49:38.361Z,26.19
2023-05-01T08:50:38.383Z,26.20
2023-05-01T08:51:38.377Z,26.20
2023-05-01T08:52:38.410Z,26.20
2023-05-01T08:53:38.420Z,26.20
2023-05-01T08:54:38.429Z,26.20
2023-05-01T08:55:38.423Z,26.21
2023-05-01T08:56:38.464Z,26.21
2023-05-01T08:57:38.472Z,26.21
2023-05-01T08:58:38.482Z,26.23
2023-05-01T08:59:38.495Z,26.23
2023-05-01T09:00:38.517Z,26.26
2023-05-01T09:01:38.564Z,26.24
2023-05-01T09:02:38.609Z,26.24
2023-05-01T09:03:38.672Z,26.24
2023-05-01T09:04:38.584Z,26.24
2023-05-01T09:05:38.580Z,26.26
2023-05-01T09:06:38.599Z,26.27
2023-05-01T09:07:38.648Z,26.26
2023-05-01T09:08:38.653Z,26.27
2023-05-01T09:09:38.662Z,26.30
2023-05-01T09:10:38.642Z,26.28
2023-05-01T09:11:38.648Z,26.28
2023-05-01T09:12:38.688Z,26.31
2023-05-01T09:13:38.706Z,26.31
2023-05-01T09:14:38.691Z,26.30
2023-05-01T09:15:38.715Z,26.31
2023-05-01T09:16:38.815Z,26.34
2023-05-01T09:17:38.767Z,26.31
2023-05-01T09:18:38.751Z,26.31
2023-05-01T09:19:38.805Z,26.33
2023-05-01T09:20:38.812Z,26.31
2023-05-01T09:21:38.824Z,26.33
2023-05-01T09:22:38.807Z,26.34
2023-05-01T09:23:38.844Z,26.34
2023-05-01T09:24:38.845Z,26.34
2023-05-01T09:25:38.846Z,26.36
2023-05-01T09:26:38.878Z,26.36
2023-05-01T09:27:38.881Z,26.36
2023-05-01T09:28:38.905Z,26.36
2023-05-01T09:29:38.910Z,26.36
2023-05-01T09:30:38.896Z,26.38
2023-05-01T09:31:38.969Z,26.38
2023-05-01T09:32:41.400Z,26.40
2023-05-01T09:33:38.890Z,26.40
2023-05-01T09:34:38.898Z,26.38
2023-05-01T09:35:38.966Z,26.40
2023-05-01T09:36:38.869Z,26.41
2023-05-01T09:37:38.888Z,26.41
2023-05-01T09:38:38.875Z,26.44
2023-05-01T09:39:38.881Z,26.43
2023-05-01T09:40:38.862Z,26.43
2023-05-01T09:41:38.855Z,26.44
2023-05-01T09:42:38.861Z,26.44
2023-05-01T09:43:38.847Z,26.46
2023-05-01T09:44:38.858Z,26.47
2023-05-01T09:45:38.954Z,26.46
2023-05-01T09:46:38.874Z,26.47
2023-05-01T09:47:38.889Z,26.48
2023-05-01T09:48:38.816Z,26.48
2023-05-01T09:49:38.808Z,26.50
2023-05-01T09:50:38.808Z,26.50
2023-05-01T09:51:38.810Z,26.50
2023-05-01T09:52:38.825Z,26.50
2023-05-01T09:53:38.773Z,26.52
2023-05-01T09:54:38.797Z,26.51
2023-05-01T09:55:38.799Z,26.50
2023-05-01T09:56:38.793Z,26.50
2023-05-01T09:57:38.772Z,26.52
2023-05-01T09:58:38.757Z,26.52
2023-05-01T09:59:38.760Z,26.51
2023-05-01T10:00:38.737Z,26.52
2023-05-01T10:01:38.857Z,26.51
2023-05-01T10:02:38.843Z,26.52
2023-05-01T10:03:38.849Z,26.54
2023-05-01T10:04:38.728Z,26.54
2023-05-01T10:05:38.702Z,26.54
2023-05-01T10:06:38.976Z,26.55
2023-05-01T10:07:38.690Z,26.52
2023-05-01T10:08:38.666Z,26.58
2023-05-01T10:09:38.689Z,26.58
2023-05-01T10:10:38.652Z,26.59
2023-05-01T10:11:38.649Z,26.59
2023-05-01T10:12:38.678Z,26.59
2023-05-01T10:13:38.674Z,26.59
2023-05-01T10:14:38.709Z,26.58
2023-05-01T10:15:38.620Z,26.61
2023-05-01T10:16:38.721Z,26.62
2023-05-01T10:17:38.736Z,26.62
2023-05-01T10:18:38.618Z,26.64
2023-05-01T10:19:38.630Z,26.64
2023-05-01T10:20:38.641Z,26.61
2023-05-01T10:21:38.640Z,26.62
2023-05-01T10:22:38.581Z,26.62
2023-05-01T10:23:38.606Z,26.65
2023-05-01T10:24:38.593Z,26.65
2023-05-01T10:25:38.583Z,26.64
2023-05-01T10:26:38.583Z,26.64
2023-05-01T10:27:38.620Z,26.64
2023-05-01T10:28:38.583Z,26.65
2023-05-01T10:29:38.557Z,26.65
2023-05-01T10:30:38.532Z,26.64
2023-05-01T10:31:40.706Z,26.65
2023-05-01T10:32:38.668Z,26.62
2023-05-01T10:33:38.592Z,26.67
2023-05-01T10:34:38.586Z,26.64
2023-05-01T10:35:38.520Z,26.68
2023-05-01T10:36:38.521Z,26.67
2023-05-01T10:37:38.529Z,26.67
2023-05-01T10:38:38.562Z,26.68
2023-05-01T10:39:38.573Z,26.68
2023-05-01T10:40:38.504Z,26.68
2023-05-01T10:41:38.481Z,26.67
2023-05-01T10:42:38.488Z,26.68
2023-05-01T10:43:38.503Z,26.70
2023-05-01T10:44:38.469Z,26.68
2023-05-01T10:45:38.477Z,26.70
2023-05-01T10:46:38.545Z,26.71
2023-05-01T10:47:38.519Z,26.70
2023-05-01T10:48:38.432Z,26.74
2023-05-01T10:49:38.428Z,26.72
2023-05-01T10:50:38.454Z,26.71
2023-05-01T10:51:38.418Z,26.74
2023-05-01T10:52:38.407Z,26.71
2023-05-01T10:53:38.411Z,26.74
2023-05-01T10:54:38.390Z,26.72
2023-05-01T10:55:38.388Z,26.72
2023-05-01T10:56:38.388Z,26.75
2023-05-01T10:57:38.381Z,26.72
2023-05-01T10:58:38.378Z,26.75
2023-05-01T10:59:38.361Z,26.74
2023-05-01T11:00:38.349Z,26.75
2023-05-01T11:01:38.411Z,26.79
2023-05-01T11:02:38.414Z,26.77
2023-05-01T11:03:38.342Z,26.75
2023-05-01T11:04:38.323Z,26.75
2023-05-01T11:05:38.846Z,26.78
2023-05-01T11:06:38.505Z,26.78
2023-05-01T11:07:38.315Z,26.77
2023-05-01T11:08:38.298Z,26.79
2023-05-01T11:09:38.289Z,26.81
2023-05-01T11:10:38.353Z,26.79
2023-05-01T11:11:38.392Z,26.81
2023-05-01T11:12:38.453Z,26.81
2023-05-01T11:13:38.497Z,26.79
2023-05-01T11:14:38.554Z,26.83
2023-05-01T11:15:38.598Z,26.82
2023-05-01T11:16:38.928Z,26.82
2023-05-01T11:17:38.739Z,26.83
2023-05-01T11:18:38.761Z,26.83
2023-05-01T11:19:38.838Z,26.83
2023-05-01T11:20:38.894Z,26.85
2023-05-01T11:21:38.980Z,26.85
2023-05-01T11:22:39.068Z,26.86
2023-05-01T11:23:39.096Z,26.85
2023-05-01T11:24:39.129Z,26.85
2023-05-01T11:25:39.255Z,26.83
2023-05-01T11:26:39.276Z,26.88
2023-05-01T11:27:39.318Z,26.86
2023-05-01T11:28:39.418Z,26.89
2023-05-01T11:29:39.472Z,26.88
2023-05-01T11:30:39.525Z,26.89
2023-05-01T11:31:39.700Z,26.89
2023-05-01T11:32:39.720Z,26.91
2023-05-01T11:33:39.689Z,26.88
2023-05-01T11:34:39.759Z,26.91
2023-05-01T11:35:39.823Z,26.89
2023-05-01T11:36:39.903Z,26.89
2023-05-01T11:37:39.955Z,26.91
2023-05-01T11:38:40.035Z,26.88
2023-05-01T11:39:40.109Z,26.91
2023-05-01T11:40:40.166Z,26.89
2023-05-01T11:41:40.222Z,26.89
2023-05-01T11:42:40.292Z,26.88
2023-05-01T11:43:40.342Z,26.91
2023-05-01T11:44:40.437Z,26.89
2023-05-01T11:45:40.563Z,26.88
2023-05-01T11:46:40.570Z,26.89
2023-05-01T11:47:40.665Z,26.89
2023-05-01T11:48:40.666Z,26.89
2023-05-01T11:49:40.766Z,26.88
2023-05-01T11:50:40.836Z,26.92
2023-05-01T11:51:40.874Z,26.93
2023-05-01T11:52:40.958Z,26.92
2023-05-01T11:53:40.974Z,26.91
2023-05-01T11:54:41.072Z,26.92
2023-05-01T11:55:41.110Z,26.91
2023-05-01T11:56:41.190Z,26.92
2023-05-01T11:57:41.238Z,26.92
2023-05-01T11:58:41.291Z,26.93
2023-05-01T11:59:41.361Z,26.92
2023-05-01T12:00:41.432Z,26.92
2023-05-01T12:01:41.469Z,26.91
2023-05-01T12:02:41.671Z,26.92
2023-05-01T12:03:41.695Z,26.92
2023-05-01T12:04:41.686Z,26.92
2023-05-01T12:05:41.711Z,26.92
2023-05-01T12:06:41.823Z,26.91
2023-05-01T12:07:41.836Z,26.93
2023-05-01T12:08:41.912Z,26.92
2023-05-01T12:09:41.978Z,26.95
2023-05-01T12:10:42.024Z,26.95
2023-05-01T12:11:42.073Z,26.93
2023-05-01T12:12:42.166Z,26.98
2023-05-01T12:13:42.213Z,26.93
2023-05-01T12:14:42.256Z,26.95
2023-05-01T12:15:42.320Z,26.95
2023-05-01T12:16:42.416Z,26.95
2023-05-01T12:17:42.478Z,26.95
2023-05-01T12:18:42.509Z,26.95
2023-05-01T12:19:42.560Z,26.96
2023-05-01T12:20:42.649Z,26.96
2023-05-01T12:21:42.696Z,26.95
2023-05-01T12:22:42.833Z,26.95
2023-05-01T12:23:42.806Z,26.96
2023-05-01T12:24:42.892Z,26.93
2023-05-01T12:25:42.982Z,26.96
2023-05-01T12:26:42.975Z,26.98
2023-05-01T12:27:43.064Z,26.96
2023-05-01T12:28:43.107Z,26.93
2023-05-01T12:29:43.179Z,26.95
2023-05-01T12:30:43.226Z,26.93
2023-05-01T12:31:43.349Z,26.95
2023-05-01T12:32:43.406Z,26.98
2023-05-01T12:33:43.432Z,26.96
2023-05-01T12:34:43.485Z,26.96
2023-05-01T12:35:43.541Z,26.95
2023-05-01T12:36:43.592Z,26.96
2023-05-01T12:37:43.711Z,26.91
2023-05-01T12:38:43.736Z,26.95
2023-05-01T12:39:43.801Z,26.96
2023-05-01T12:40:43.854Z,26.95
2023-05-01T12:41:43.928Z,26.96
2023-05-01T12:42:44.021Z,26.95
2023-05-01T12:43:44.481Z,26.96
2023-05-01T12:44:44.116Z,26.96
2023-05-01T12:45:44.187Z,26.96
2023-05-01T12:46:44.292Z,26.96
2023-05-01T12:47:44.385Z,26.98
2023-05-01T12:48:44.370Z,26.98
2023-05-01T12:49:44.447Z,26.98
2023-05-01T12:50:47.014Z,26.98
2023-05-01T12:51:44.506Z,26.98
2023-05-01T12:52:44.514Z,26.98